Decoded Metar for YSCB (CANBERRA in AUSTRALIA) (IATA:CBR) | Meteo·Mobile Aviation Weather
aviador You're here:

YSCB Decoded Metar

CANBERRA in AUSTRALIA
Report Time2018-11-19 02:30:00
UTC Time2018-11-19 02:49:35
Flight Rules vfr VFR
Wind230° at 05 kt
W.Decomp.*RWY 17: 3.3 kt HW 3.7 kt RCW
RWY 30: 0.7 kt HW 5 kt LCW
W.Rank230° ranks 34
Current wind is above 230° avg. (4.5)
Visibility9999 m
Phenomena:N/A
Clouds:N/A
Expected CloudBase > 8,000 ft AGL from Temp-Dew spread
CeilingNone
Temp23°C (ISA +12)
Dew Point03°C (27% RH)
AAT19.7°C
QNH1018 hPa
Density Alt3,196 ft
Elevation1,893 ft
Report Wrong Elevation
Raw Report
YSCB 190230Z 23005KT CAVOK 23/03 Q1018 NOSIG=

Extra information for YSCB:More info

Metar Taf Metar & Taf Last 4 Metars F.Rules Stats Wind Profile Meteogram Temp Stats Airport Information Weather charts Add Link Nearby VenuesMetar ALERT Operation Metar Decoded Social comments